CheckWX is a tool to help pilots better visualize weather data.  It is not intended as a substitute for an official pre-flight weather briefing.

15:05:39 UTC

KCAV METAR
Clarion Municipal Airport
Clarion, Iowa, USA
Current

11 mins ago

KCAV 231455Z AUTO 28013KT 10SM FEW021 14/09 A3007 RMK AO2 PWINO
Observed
May-23 @ 14:55 UTC
Wind
  • 280° at 13 KTS
Visibility
10 SM
Flight Rules
VFR
Cloud Levels
  • Few at 2,100' AGL
Temperature
14°C / 57°F
Dewpoint
C / 48°F
Humidity
72%
Altimeter
30.07" Hg
Pressure
1018.32 hPa
Previous

31 mins ago

KCAV 231435Z AUTO 29012KT 10SM FEW018 13/09 A3006 RMK AO2 PWINO
Observed
May-23 @ 14:35 UTC
Wind
  • 290° at 12 KTS
Visibility
10 SM
Flight Rules
VFR
Cloud Levels
  • Few at 1,800' AGL
Temperature
13°C / 55°F
Dewpoint
C / 48°F
Humidity
77%
Altimeter
30.06" Hg
Pressure
1017.92 hPa
Previous

51 mins ago

KCAV 231415Z AUTO 29012KT 10SM FEW017 13/10 A3005 RMK AO2 PWINO
Observed
May-23 @ 14:15 UTC
Wind
  • 290° at 12 KTS
Visibility
10 SM
Flight Rules
VFR
Cloud Levels
  • Few at 1,700' AGL
Temperature
13°C / 55°F
Dewpoint
10°C / 50°F
Humidity
82%
Altimeter
30.05" Hg
Pressure
1017.62 hPa